Time,TemperatureF,DewpointF,PressureIn,WindDirection,WindDirectionDegrees,WindSpeedMPH,WindSpeedGustMPH,Humidity,HourlyPrecipIn,Conditions,Clouds,dailyrainin,SolarRadiationWatts/m^2,SoftwareType,DateUTC
2013-01-03 00:02:00,12.0,6.0,-100.00,East,90,7.0,9.0,78,0.00,,,0.00,0.000000,,2013-01-03 07:02:00,
2013-01-03 00:12:00,12.0,6.0,-100.00,East,90,7.0,9.0,78,0.00,,,0.00,0.000000,,2013-01-03 07:12:00,
2013-01-03 00:22:00,12.0,6.0,-100.00,East,90,7.0,9.0,78,0.00,,,0.00,0.000000,,2013-01-03 07:22:00,
2013-01-03 00:32:00,12.0,6.0,-100.00,East,90,7.0,9.0,78,0.00,,,0.00,0.000000,,2013-01-03 07:32:00,
2013-01-03 01:02:00,12.0,6.0,-100.00,East,89,6.0,9.0,76,0.00,,,0.00,0.000000,,2013-01-03 08:02:00,
2013-01-03 01:12:00,12.0,6.0,-100.00,East,89,6.0,9.0,76,0.00,,,0.00,0.000000,,2013-01-03 08:12:00,
2013-01-03 01:22:00,12.0,6.0,-100.00,East,89,6.0,9.0,76,0.00,,,0.00,0.000000,,2013-01-03 08:22:00,
2013-01-03 01:32:00,12.0,6.0,-100.00,East,89,6.0,9.0,76,0.00,,,0.00,0.000000,,2013-01-03 08:32:00,
2013-01-03 02:02:00,11.0,6.0,-100.00,ENE,77,1.0,6.0,80,-99.99,,,0.00,0.000000,,2013-01-03 09:02:00,
2013-01-03 02:33:00,11.0,6.0,-100.00,ENE,77,1.0,6.0,80,-99.99,,,0.00,0.000000,,2013-01-03 09:33:00,
2013-01-03 02:53:00,11.0,7.0,-100.00,ENE,76,1.0,4.0,82,-99.99,,,0.00,0.000000,,2013-01-03 09:53:00,
2013-01-03 03:02:00,11.0,7.0,-100.00,ENE,76,1.0,4.0,82,-99.99,,,0.00,0.000000,,2013-01-03 10:02:00,
2013-01-03 03:53:00,9.0,4.0,-100.00,East,91,5.0,6.0,80,-99.99,,,0.00,0.000000,,2013-01-03 10:53:00,
2013-01-03 04:02:00,9.0,4.0,-100.00,East,91,5.0,6.0,80,-99.99,,,0.00,0.000000,,2013-01-03 11:02:00,
2013-01-03 04:12:00,9.0,4.0,-100.00,East,91,5.0,6.0,80,-99.99,,,0.00,0.000000,,2013-01-03 11:12:00,
2013-01-03 04:22:00,9.0,4.0,-100.00,East,91,5.0,6.0,80,-99.99,,,0.00,0.000000,,2013-01-03 11:22:00,
2013-01-03 04:32:00,9.0,4.0,-100.00,East,91,5.0,6.0,80,-99.99,,,0.00,0.000000,,2013-01-03 11:32:00,
2013-01-03 04:53:00,9.0,4.0,-100.00,East,92,4.0,5.0,81,0.00,,,0.00,0.000000,,2013-01-03 11:53:00,
2013-01-03 05:02:00,9.0,4.0,-100.00,East,92,4.0,5.0,81,0.00,,,0.00,0.000000,,2013-01-03 12:02:00,
2013-01-03 05:12:00,9.0,4.0,-100.00,East,92,4.0,5.0,81,0.00,,,0.00,0.000000,,2013-01-03 12:12:00,
2013-01-03 05:22:00,9.0,4.0,-100.00,East,92,4.0,5.0,81,0.00,,,0.00,0.000000,,2013-01-03 12:22:00,
2013-01-03 05:32:00,9.0,4.0,-100.00,East,92,4.0,5.0,81,0.00,,,0.00,0.000000,,2013-01-03 12:32:00,
2013-01-03 05:53:00,9.0,4.0,-100.00,NE,55,2.0,6.0,79,0.00,,,0.00,0.000000,,2013-01-03 12:53:00,
2013-01-03 06:02:00,9.0,4.0,-100.00,NE,55,2.0,6.0,79,0.00,,,0.00,0.000000,,2013-01-03 13:02:00,
2013-01-03 06:12:00,9.0,4.0,-100.00,NE,55,2.0,6.0,79,0.00,,,0.00,0.000000,,2013-01-03 13:12:00,
2013-01-03 06:22:00,9.0,4.0,-100.00,NE,55,2.0,6.0,79,0.00,,,0.00,0.000000,,2013-01-03 13:22:00,
2013-01-03 06:32:00,9.0,4.0,-100.00,NE,55,2.0,6.0,79,0.00,,,0.00,0.000000,,2013-01-03 13:32:00,
2013-01-03 06:53:00,8.0,4.0,-100.00,East,87,3.0,4.0,83,0.00,,,0.00,0.000000,,2013-01-03 13:53:00,
2013-01-03 07:02:00,8.0,4.0,-100.00,East,87,3.0,4.0,83,0.00,,,0.00,0.000000,,2013-01-03 14:02:00,
2013-01-03 07:22:00,8.0,4.0,-100.00,East,87,3.0,4.0,83,0.00,,,0.00,0.000000,,2013-01-03 14:22:00,
2013-01-03 07:32:00,8.0,4.0,-100.00,East,87,3.0,4.0,83,0.00,,,0.00,0.000000,,2013-01-03 14:32:00,
2013-01-03 08:02:00,8.0,4.0,-100.00,ENE,72,2.0,4.0,83,0.00,,,-99.99,0.000000,,2013-01-03 15:02:00,
2013-01-03 09:03:00,9.0,5.0,-100.00,East,98,1.0,3.0,84,-99.99,,,0.00,3.000000,,2013-01-03 16:03:00,
2013-01-03 10:03:00,12.0,5.0,-100.00,East,88,3.0,5.0,73,-99.99,,,0.00,63.000000,,2013-01-03 17:03:00,
2013-01-03 10:53:00,16.0,6.0,-100.00,ESE,105,3.0,5.0,63,-99.99,,,0.00,201.000000,,2013-01-03 17:53:00,
2013-01-03 11:03:00,16.0,6.0,-100.00,ESE,105,3.0,5.0,63,-99.99,,,0.00,201.000000,,2013-01-03 18:03:00,
2013-01-03 12:03:00,21.0,7.0,-100.00,ESE,116,2.0,4.0,54,-99.99,,,0.00,325.000000,,2013-01-03 19:03:00,
2013-01-03 13:02:00,28.0,10.0,-100.00,ESE,119,1.0,4.0,47,-99.99,,,0.00,404.000000,,2013-01-03 20:02:00,
2013-01-03 14:02:00,30.0,11.0,-100.00,South,181,0.0,3.0,45,-99.99,,,0.00,369.000000,,2013-01-03 21:02:00,
2013-01-03 15:02:00,30.0,12.0,-100.00,WSW,254,2.0,4.0,46,0.01,,,0.01,366.000000,,2013-01-03 22:02:00,
2013-01-03 15:12:00,30.0,12.0,-100.00,WSW,254,2.0,4.0,46,0.01,,,0.01,366.000000,,2013-01-03 22:12:00,
2013-01-03 15:22:00,30.0,12.0,-100.00,WSW,254,2.0,4.0,46,0.01,,,0.01,366.000000,,2013-01-03 22:22:00,
2013-01-03 15:32:00,30.0,12.0,-100.00,WSW,254,2.0,4.0,46,0.01,,,0.01,366.000000,,2013-01-03 22:32:00,
2013-01-03 15:52:00,32.0,14.0,-100.00,SW,219,2.0,4.0,46,0.01,,,0.02,291.000000,,2013-01-03 22:52:00,
2013-01-03 16:02:00,32.0,14.0,-100.00,SW,219,2.0,4.0,46,0.01,,,0.02,291.000000,,2013-01-03 23:02:00,
2013-01-03 16:53:00,27.0,11.0,-100.00,ENE,76,0.0,3.0,51,-99.99,,,0.02,135.000000,,2013-01-03 23:53:00,
2013-01-03 17:03:00,27.0,11.0,-100.00,ENE,76,0.0,3.0,51,-99.99,,,0.02,135.000000,,2013-01-04 00:03:00,
2013-01-03 17:12:00,27.0,11.0,-100.00,ENE,76,0.0,3.0,51,-99.99,,,0.02,135.000000,,2013-01-04 00:12:00,
2013-01-03 17:22:00,27.0,11.0,-100.00,ENE,76,0.0,3.0,51,-99.99,,,0.02,135.000000,,2013-01-04 00:22:00,
2013-01-03 17:32:00,27.0,11.0,-100.00,ENE,76,0.0,3.0,51,-99.99,,,0.02,135.000000,,2013-01-04 00:32:00,
2013-01-03 18:02:00,23.0,10.0,-100.00,East,96,2.0,3.0,56,0.00,,,0.02,9.000000,,2013-01-04 01:02:00,
2013-01-03 18:12:00,23.0,10.0,-100.00,East,96,2.0,3.0,56,0.00,,,0.02,9.000000,,2013-01-04 01:12:00,
2013-01-03 18:22:00,23.0,10.0,-100.00,East,96,2.0,3.0,56,0.00,,,0.02,9.000000,,2013-01-04 01:22:00,
2013-01-03 18:32:00,23.0,10.0,-100.00,East,96,2.0,3.0,56,0.00,,,0.02,9.000000,,2013-01-04 01:32:00,
2013-01-03 18:52:00,22.0,10.0,-100.00,East,100,2.0,4.0,60,0.00,,,-99.99,0.000000,,2013-01-04 01:52:00,
2013-01-03 19:02:00,22.0,10.0,-100.00,East,100,2.0,4.0,60,0.00,,,-99.99,0.000000,,2013-01-04 02:02:00,
2013-01-03 19:12:00,22.0,10.0,-100.00,East,100,2.0,4.0,60,0.00,,,-99.99,0.000000,,2013-01-04 02:12:00,
2013-01-03 19:22:00,22.0,10.0,-100.00,East,100,2.0,4.0,60,0.00,,,-99.99,0.000000,,2013-01-04 02:22:00,
2013-01-03 19:32:00,22.0,10.0,-100.00,East,100,2.0,4.0,60,0.00,,,-99.99,0.000000,,2013-01-04 02:32:00,
2013-01-03 19:53:00,20.0,10.0,-100.00,ESE,104,0.0,4.0,64,-99.99,,,0.02,0.000000,,2013-01-04 02:53:00,
2013-01-03 20:02:00,20.0,10.0,-100.00,ESE,104,0.0,4.0,64,-99.99,,,0.02,0.000000,,2013-01-04 03:02:00,
2013-01-03 20:12:00,20.0,10.0,-100.00,ESE,104,0.0,4.0,64,-99.99,,,0.02,0.000000,,2013-01-04 03:12:00,
2013-01-03 20:22:00,20.0,10.0,-100.00,ESE,104,0.0,4.0,64,-99.99,,,0.02,0.000000,,2013-01-04 03:22:00,
2013-01-03 20:53:00,20.0,11.0,-100.00,ESE,108,1.0,4.0,66,-99.99,,,0.02,0.000000,,2013-01-04 03:53:00,
2013-01-03 21:02:00,20.0,11.0,-100.00,ESE,108,1.0,4.0,66,-99.99,,,0.02,0.000000,,2013-01-04 04:02:00,
2013-01-03 21:52:00,19.0,11.0,-100.00,ESE,111,2.0,5.0,71,-99.99,,,-99.99,0.000000,,2013-01-04 04:52:00,
2013-01-03 22:03:00,19.0,11.0,-100.00,ESE,111,2.0,5.0,71,-99.99,,,-99.99,0.000000,,2013-01-04 05:03:00,
2013-01-03 22:53:00,19.0,11.0,-100.00,ESE,105,2.0,6.0,72,-99.99,,,0.02,0.000000,,2013-01-04 05:53:00,
2013-01-03 23:02:00,19.0,11.0,-100.00,ESE,105,2.0,6.0,72,-99.99,,,0.02,0.000000,,2013-01-04 06:02:00,